sensor_id;sensor_type;location;lat;lon;timestamp;P1;durP1;ratioP1;P2;durP2;ratioP2
74213;SDS011;62576;55.694;37.494;2024-01-15T00:01:03;12.45;;;4.53;;
74213;SDS011;62576;55.694;37.494;2024-01-15T00:03:35;15.77;;;5.35;;
74213;SDS011;62576;55.694;37.494;2024-01-15T00:06:05;14.45;;;4.32;;
74213;SDS011;62576;55.694;37.494;2024-01-15T00:08:34;13.90;;;5.22;;
74213;SDS011;62576;55.694;37.494;2024-01-15T00:11:04;14.95;;;4.90;;
74213;SDS011;62576;55.694;37.494;2024-01-15T00:13:34;13.10;;;5.07;;
74213;SDS011;62576;55.694;37.494;2024-01-15T00:16:04;11.70;;;4.68;;
74213;SDS011;62576;55.694;37.494;2024-01-15T00:18:36;15.60;;;5.47;;
74213;SDS011;62576;55.694;37.494;2024-01-15T00:21:05;16.60;;;6.22;;
74213;SDS011;62576;55.694;37.494;2024-01-15T00:23:35;13.27;;;5.03;;
74213;SDS011;62576;55.694;37.494;2024-01-15T00:26:05;14.10;;;5.60;;
74213;SDS011;62576;55.694;37.494;2024-01-15T00:28:35;16.15;;;5.30;;
74213;SDS011;62576;55.694;37.494;2024-01-15T00:31:05;17.25;;;5.97;;
74213;SDS011;62576;55.694;37.494;2024-01-15T00:33:36;18.85;;;6.07;;
74213;SDS011;62576;55.694;37.494;2024-01-15T00:36:06;16.15;;;5.38;;
74213;SDS011;62576;55.694;37.494;2024-01-15T00:38:36;17.25;;;5.72;;
74213;SDS011;62576;55.694;37.494;2024-01-15T00:41:06;15.95;;;4.85;;
74213;SDS011;62576;55.694;37.494;2024-01-15T00:43:36;16.35;;;5.57;;
74213;SDS011;62576;55.694;37.494;2024-01-15T00:46:06;14.13;;;5.40;;
74213;SDS011;62576;55.694;37.494;2024-01-15T00:48:37;17.63;;;5.95;;
74213;SDS011;62576;55.694;37.494;2024-01-15T00:51:07;18.50;;;6.20;;
74213;SDS011;62576;55.694;37.494;2024-01-15T00:53:37;15.10;;;5.07;;
74213;SDS011;62576;55.694;37.494;2024-01-15T00:56:07;18.10;;;6.43;;
74213;SDS011;62576;55.694;37.494;2024-01-15T00:58:37;19.48;;;6.50;;
74213;SDS011;62576;55.694;37.494;2024-01-15T01:01:07;18.52;;;6.85;;
74213;SDS011;62576;55.694;37.494;2024-01-15T01:03:38;14.07;;;4.93;;
74213;SDS011;62576;55.694;37.494;2024-01-15T01:06:08;14.15;;;4.93;;
74213;SDS011;62576;55.694;37.494;2024-01-15T01:08:39;17.95;;;6.63;;
74213;SDS011;62576;55.694;37.494;2024-01-15T01:11:12;18.27;;;6.45;;
74213;SDS011;62576;55.694;37.494;2024-01-15T01:13:42;10.73;;;4.38;;
74213;SDS011;62576;55.694;37.494;2024-01-15T01:16:12;17.23;;;6.63;;
74213;SDS011;62576;55.694;37.494;2024-01-15T01:18:43;20.00;;;6.53;;
74213;SDS011;62576;55.694;37.494;2024-01-15T01:21:13;21.92;;;6.65;;
74213;SDS011;62576;55.694;37.494;2024-01-15T01:23:43;18.05;;;6.28;;
74213;SDS011;62576;55.694;37.494;2024-01-15T01:26:15;16.83;;;5.90;;
74213;SDS011;62576;55.694;37.494;2024-01-15T01:28:44;18.08;;;6.30;;
74213;SDS011;62576;55.694;37.494;2024-01-15T01:31:14;18.65;;;5.82;;
74213;SDS011;62576;55.694;37.494;2024-01-15T01:33:46;14.82;;;6.13;;
74213;SDS011;62576;55.694;37.494;2024-01-15T01:36:16;16.38;;;6.25;;
74213;SDS011;62576;55.694;37.494;2024-01-15T01:38:46;17.20;;;5.68;;
74213;SDS011;62576;55.694;37.494;2024-01-15T01:41:16;15.27;;;5.28;;
74213;SDS011;62576;55.694;37.494;2024-01-15T01:43:45;16.58;;;6.30;;
74213;SDS011;62576;55.694;37.494;2024-01-15T01:46:15;13.30;;;5.18;;
74213;SDS011;62576;55.694;37.494;2024-01-15T01:48:47;18.40;;;6.75;;
74213;SDS011;62576;55.694;37.494;2024-01-15T01:51:17;15.02;;;6.00;;
74213;SDS011;62576;55.694;37.494;2024-01-15T01:53:46;17.60;;;6.25;;
74213;SDS011;62576;55.694;37.494;2024-01-15T01:56:14;19.33;;;5.93;;
74213;SDS011;62576;55.694;37.494;2024-01-15T01:58:44;16.90;;;7.10;;
74213;SDS011;62576;55.694;37.494;2024-01-15T02:01:14;20.38;;;7.05;;
74213;SDS011;62576;55.694;37.494;2024-01-15T02:03:44;15.60;;;5.90;;
74213;SDS011;62576;55.694;37.494;2024-01-15T02:06:16;20.90;;;7.30;;
74213;SDS011;62576;55.694;37.494;2024-01-15T02:08:46;16.13;;;5.85;;
74213;SDS011;62576;55.694;37.494;2024-01-15T02:11:16;15.65;;;5.53;;
74213;SDS011;62576;55.694;37.494;2024-01-15T02:13:46;17.23;;;6.55;;
74213;SDS011;62576;55.694;37.494;2024-01-15T02:16:15;15.15;;;5.43;;
74213;SDS011;62576;55.694;37.494;2024-01-15T02:18:46;14.32;;;5.97;;
74213;SDS011;62576;55.694;37.494;2024-01-15T02:21:17;19.35;;;6.88;;
74213;SDS011;62576;55.694;37.494;2024-01-15T02:23:48;17.48;;;6.60;;
74213;SDS011;62576;55.694;37.494;2024-01-15T02:26:18;17.00;;;5.70;;
74213;SDS011;62576;55.694;37.494;2024-01-15T02:28:48;15.98;;;6.22;;
74213;SDS011;62576;55.694;37.494;2024-01-15T02:31:15;18.65;;;7.10;;
74213;SDS011;62576;55.694;37.494;2024-01-15T02:33:44;18.58;;;6.53;;
74213;SDS011;62576;55.694;37.494;2024-01-15T02:36:15;19.75;;;6.47;;
74213;SDS011;62576;55.694;37.494;2024-01-15T02:38:45;22.25;;;7.32;;
74213;SDS011;62576;55.694;37.494;2024-01-15T02:41:16;22.40;;;7.40;;
74213;SDS011;62576;55.694;37.494;2024-01-15T02:43:46;15.43;;;6.47;;
74213;SDS011;62576;55.694;37.494;2024-01-15T02:46:16;17.27;;;6.15;;
74213;SDS011;62576;55.694;37.494;2024-01-15T02:48:45;17.58;;;5.55;;
74213;SDS011;62576;55.694;37.494;2024-01-15T02:51:15;20.83;;;7.30;;
74213;SDS011;62576;55.694;37.494;2024-01-15T02:53:45;22.65;;;7.82;;
74213;SDS011;62576;55.694;37.494;2024-01-15T02:56:19;21.52;;;7.75;;
74213;SDS011;62576;55.694;37.494;2024-01-15T02:58:49;19.63;;;7.50;;
74213;SDS011;62576;55.694;37.494;2024-01-15T03:01:18;21.17;;;6.88;;
74213;SDS011;62576;55.694;37.494;2024-01-15T03:03:48;10.90;;;4.78;;
74213;SDS011;62576;55.694;37.494;2024-01-15T03:06:18;19.13;;;7.07;;
74213;SDS011;62576;55.694;37.494;2024-01-15T03:08:48;20.40;;;7.70;;
74213;SDS011;62576;55.694;37.494;2024-01-15T03:11:19;22.05;;;7.80;;
74213;SDS011;62576;55.694;37.494;2024-01-15T03:13:49;19.55;;;7.13;;
74213;SDS011;62576;55.694;37.494;2024-01-15T03:16:19;19.98;;;7.70;;
74213;SDS011;62576;55.694;37.494;2024-01-15T03:18:49;25.83;;;7.30;;
74213;SDS011;62576;55.694;37.494;2024-01-15T03:21:19;24.30;;;7.18;;
74213;SDS011;62576;55.694;37.494;2024-01-15T03:23:48;26.00;;;7.50;;
74213;SDS011;62576;55.694;37.494;2024-01-15T03:26:20;18.30;;;6.43;;
74213;SDS011;62576;55.694;37.494;2024-01-15T03:28:50;19.67;;;6.68;;
74213;SDS011;62576;55.694;37.494;2024-01-15T03:31:20;18.40;;;7.38;;
74213;SDS011;62576;55.694;37.494;2024-01-15T03:33:49;22.55;;;7.80;;
74213;SDS011;62576;55.694;37.494;2024-01-15T03:36:19;22.05;;;7.72;;
74213;SDS011;62576;55.694;37.494;2024-01-15T03:38:49;19.35;;;7.68;;
74213;SDS011;62576;55.694;37.494;2024-01-15T03:41:20;21.60;;;7.40;;
74213;SDS011;62576;55.694;37.494;2024-01-15T03:43:50;20.50;;;7.47;;
74213;SDS011;62576;55.694;37.494;2024-01-15T03:46:20;20.13;;;7.22;;
74213;SDS011;62576;55.694;37.494;2024-01-15T03:48:50;23.40;;;7.32;;
74213;SDS011;62576;55.694;37.494;2024-01-15T03:51:19;23.25;;;8.10;;
74213;SDS011;62576;55.694;37.494;2024-01-15T03:53:49;19.90;;;7.43;;
74213;SDS011;62576;55.694;37.494;2024-01-15T03:56:20;19.50;;;6.13;;
74213;SDS011;62576;55.694;37.494;2024-01-15T03:58:50;15.55;;;6.18;;
74213;SDS011;62576;55.694;37.494;2024-01-15T04:01:20;20.92;;;6.95;;
74213;SDS011;62576;55.694;37.494;2024-01-15T04:03:50;27.45;;;8.43;;
74213;SDS011;62576;55.694;37.494;2024-01-15T04:06:21;20.88;;;7.82;;
74213;SDS011;62576;55.694;37.494;2024-01-15T04:08:51;22.75;;;7.93;;
74213;SDS011;62576;55.694;37.494;2024-01-15T04:11:22;21.88;;;7.90;;
74213;SDS011;62576;55.694;37.494;2024-01-15T04:13:52;24.45;;;8.32;;
74213;SDS011;62576;55.694;37.494;2024-01-15T04:16:21;18.88;;;7.20;;
74213;SDS011;62576;55.694;37.494;2024-01-15T04:18:51;21.02;;;7.72;;
74213;SDS011;62576;55.694;37.494;2024-01-15T04:21:21;24.45;;;8.65;;
74213;SDS011;62576;55.694;37.494;2024-01-15T04:23:51;24.10;;;8.43;;
74213;SDS011;62576;55.694;37.494;2024-01-15T04:26:21;23.50;;;8.48;;
74213;SDS011;62576;55.694;37.494;2024-01-15T04:28:52;21.40;;;7.82;;
74213;SDS011;62576;55.694;37.494;2024-01-15T04:31:22;19.25;;;6.80;;
74213;SDS011;62576;55.694;37.494;2024-01-15T04:33:52;25.92;;;8.82;;
74213;SDS011;62576;55.694;37.494;2024-01-15T04:36:22;24.02;;;8.48;;
74213;SDS011;62576;55.694;37.494;2024-01-15T04:38:52;21.55;;;8.73;;
74213;SDS011;62576;55.694;37.494;2024-01-15T04:41:22;22.10;;;7.57;;
74213;SDS011;62576;55.694;37.494;2024-01-15T04:43:55;20.65;;;7.85;;
74213;SDS011;62576;55.694;37.494;2024-01-15T04:46:25;21.40;;;8.15;;
74213;SDS011;62576;55.694;37.494;2024-01-15T04:48:55;22.15;;;7.55;;
74213;SDS011;62576;55.694;37.494;2024-01-15T04:51:25;18.73;;;7.18;;
74213;SDS011;62576;55.694;37.494;2024-01-15T04:53:55;25.30;;;8.63;;
74213;SDS011;62576;55.694;37.494;2024-01-15T04:56:25;21.30;;;7.07;;
74213;SDS011;62576;55.694;37.494;2024-01-15T04:58:59;21.55;;;7.72;;
74213;SDS011;62576;55.694;37.494;2024-01-15T05:01:30;21.45;;;8.30;;
74213;SDS011;62576;55.694;37.494;2024-01-15T05:04:00;27.02;;;9.25;;
74213;SDS011;62576;55.694;37.494;2024-01-15T05:06:30;25.48;;;8.68;;
74213;SDS011;62576;55.694;37.494;2024-01-15T05:09:00;21.65;;;7.03;;
74213;SDS011;62576;55.694;37.494;2024-01-15T05:11:27;24.98;;;8.18;;
74213;SDS011;62576;55.694;37.494;2024-01-15T05:13:57;23.95;;;8.70;;
74213;SDS011;62576;55.694;37.494;2024-01-15T05:16:28;19.25;;;7.65;;
74213;SDS011;62576;55.694;37.494;2024-01-15T05:18:58;25.35;;;8.30;;
74213;SDS011;62576;55.694;37.494;2024-01-15T05:21:28;26.55;;;8.63;;
74213;SDS011;62576;55.694;37.494;2024-01-15T05:23:58;25.38;;;8.77;;
74213;SDS011;62576;55.694;37.494;2024-01-15T05:26:28;23.85;;;7.95;;
74213;SDS011;62576;55.694;37.494;2024-01-15T05:28:57;24.65;;;7.88;;
74213;SDS011;62576;55.694;37.494;2024-01-15T05:31:29;24.13;;;9.02;;
74213;SDS011;62576;55.694;37.494;2024-01-15T05:33:58;17.13;;;5.65;;
74213;SDS011;62576;55.694;37.494;2024-01-15T05:36:28;27.05;;;9.43;;
74213;SDS011;62576;55.694;37.494;2024-01-15T05:38:58;19.30;;;7.60;;
74213;SDS011;62576;55.694;37.494;2024-01-15T05:41:32;27.63;;;8.65;;
74213;SDS011;62576;55.694;37.494;2024-01-15T05:44:02;23.80;;;8.30;;
74213;SDS011;62576;55.694;37.494;2024-01-15T05:46:33;24.30;;;8.68;;
74213;SDS011;62576;55.694;37.494;2024-01-15T05:49:06;24.40;;;9.13;;
74213;SDS011;62576;55.694;37.494;2024-01-15T05:51:36;26.65;;;9.38;;
74213;SDS011;62576;55.694;37.494;2024-01-15T05:54:06;25.42;;;9.20;;
74213;SDS011;62576;55.694;37.494;2024-01-15T05:56:36;27.80;;;9.27;;
74213;SDS011;62576;55.694;37.494;2024-01-15T05:59:06;23.95;;;8.02;;
74213;SDS011;62576;55.694;37.494;2024-01-15T06:01:40;25.23;;;9.05;;
74213;SDS011;62576;55.694;37.494;2024-01-15T06:04:09;22.65;;;7.80;;
74213;SDS011;62576;55.694;37.494;2024-01-15T06:06:39;25.23;;;8.88;;
74213;SDS011;62576;55.694;37.494;2024-01-15T06:09:09;24.13;;;9.15;;
74213;SDS011;62576;55.694;37.494;2024-01-15T06:11:39;22.40;;;8.23;;
74213;SDS011;62576;55.694;37.494;2024-01-15T06:14:09;22.02;;;7.97;;
74213;SDS011;62576;55.694;37.494;2024-01-15T06:16:40;20.02;;;7.47;;
74213;SDS011;62576;55.694;37.494;2024-01-15T06:19:10;22.00;;;8.10;;
74213;SDS011;62576;55.694;37.494;2024-01-15T06:21:40;22.55;;;7.90;;
74213;SDS011;62576;55.694;37.494;2024-01-15T06:24:10;24.65;;;8.20;;
74213;SDS011;62576;55.694;37.494;2024-01-15T06:26:41;24.05;;;9.02;;
74213;SDS011;62576;55.694;37.494;2024-01-15T06:29:11;23.52;;;7.90;;
74213;SDS011;62576;55.694;37.494;2024-01-15T06:31:45;21.98;;;7.53;;
74213;SDS011;62576;55.694;37.494;2024-01-15T06:34:15;21.95;;;8.80;;
74213;SDS011;62576;55.694;37.494;2024-01-15T06:36:48;23.40;;;8.93;;
74213;SDS011;62576;55.694;37.494;2024-01-15T06:39:18;24.63;;;9.25;;
74213;SDS011;62576;55.694;37.494;2024-01-15T06:41:47;25.73;;;8.68;;
74213;SDS011;62576;55.694;37.494;2024-01-15T06:44:17;25.38;;;9.05;;
74213;SDS011;62576;55.694;37.494;2024-01-15T06:46:50;22.95;;;7.85;;
74213;SDS011;62576;55.694;37.494;2024-01-15T06:49:25;24.23;;;8.77;;
74213;SDS011;62576;55.694;37.494;2024-01-15T06:51:55;23.65;;;8.73;;
74213;SDS011;62576;55.694;37.494;2024-01-15T06:54:25;24.25;;;8.30;;
74213;SDS011;62576;55.694;37.494;2024-01-15T06:56:55;22.65;;;7.47;;
74213;SDS011;62576;55.694;37.494;2024-01-15T06:59:25;23.83;;;7.85;;
74213;SDS011;62576;55.694;37.494;2024-01-15T07:01:56;26.17;;;8.77;;
74213;SDS011;62576;55.694;37.494;2024-01-15T07:04:27;22.98;;;8.30;;
74213;SDS011;62576;55.694;37.494;2024-01-15T07:06:54;24.00;;;8.73;;
74213;SDS011;62576;55.694;37.494;2024-01-15T07:09:29;30.58;;;9.32;;
74213;SDS011;62576;55.694;37.494;2024-01-15T07:11:59;24.38;;;8.52;;
74213;SDS011;62576;55.694;37.494;2024-01-15T07:14:29;26.63;;;8.90;;
74213;SDS011;62576;55.694;37.494;2024-01-15T07:17:00;23.45;;;8.70;;
74213;SDS011;62576;55.694;37.494;2024-01-15T07:19:30;22.13;;;8.10;;
74213;SDS011;62576;55.694;37.494;2024-01-15T07:22:00;24.92;;;8.80;;
74213;SDS011;62576;55.694;37.494;2024-01-15T07:24:30;22.92;;;8.15;;
74213;SDS011;62576;55.694;37.494;2024-01-15T07:27:00;25.42;;;8.60;;
74213;SDS011;62576;55.694;37.494;2024-01-15T07:29:30;25.67;;;9.25;;
74213;SDS011;62576;55.694;37.494;2024-01-15T07:32:02;19.92;;;8.00;;
74213;SDS011;62576;55.694;37.494;2024-01-15T07:34:32;26.42;;;9.38;;
74213;SDS011;62576;55.694;37.494;2024-01-15T07:37:02;23.10;;;8.32;;
74213;SDS011;62576;55.694;37.494;2024-01-15T07:39:32;23.92;;;8.27;;
74213;SDS011;62576;55.694;37.494;2024-01-15T07:42:05;22.27;;;7.80;;
74213;SDS011;62576;55.694;37.494;2024-01-15T07:44:35;23.15;;;8.45;;
74213;SDS011;62576;55.694;37.494;2024-01-15T07:47:07;24.17;;;8.55;;
74213;SDS011;62576;55.694;37.494;2024-01-15T07:49:37;25.20;;;9.10;;
74213;SDS011;62576;55.694;37.494;2024-01-15T07:52:07;26.10;;;9.02;;
74213;SDS011;62576;55.694;37.494;2024-01-15T07:54:38;23.85;;;8.50;;
74213;SDS011;62576;55.694;37.494;2024-01-15T07:57:07;25.58;;;8.82;;
74213;SDS011;62576;55.694;37.494;2024-01-15T07:59:37;20.65;;;8.05;;
74213;SDS011;62576;55.694;37.494;2024-01-15T08:02:09;24.98;;;8.70;;
74213;SDS011;62576;55.694;37.494;2024-01-15T08:04:39;22.80;;;8.10;;
74213;SDS011;62576;55.694;37.494;2024-01-15T08:07:09;24.33;;;8.32;;
74213;SDS011;62576;55.694;37.494;2024-01-15T08:09:39;18.90;;;7.22;;
74213;SDS011;62576;55.694;37.494;2024-01-15T08:12:09;23.48;;;8.68;;
74213;SDS011;62576;55.694;37.494;2024-01-15T08:14:40;19.67;;;7.85;;
74213;SDS011;62576;55.694;37.494;2024-01-15T08:17:11;26.33;;;8.98;;
74213;SDS011;62576;55.694;37.494;2024-01-15T08:19:41;24.05;;;8.35;;
74213;SDS011;62576;55.694;37.494;2024-01-15T08:22:11;20.67;;;8.30;;
74213;SDS011;62576;55.694;37.494;2024-01-15T08:24:38;23.90;;;8.90;;
74213;SDS011;62576;55.694;37.494;2024-01-15T08:27:08;24.48;;;7.80;;
74213;SDS011;62576;55.694;37.494;2024-01-15T08:29:38;23.52;;;8.15;;
74213;SDS011;62576;55.694;37.494;2024-01-15T08:32:08;23.13;;;8.13;;
74213;SDS011;62576;55.694;37.494;2024-01-15T08:37:13;23.10;;;7.90;;
74213;SDS011;62576;55.694;37.494;2024-01-15T08:39:43;26.50;;;9.35;;
74213;SDS011;62576;55.694;37.494;2024-01-15T08:42:13;23.15;;;8.65;;
74213;SDS011;62576;55.694;37.494;2024-01-15T08:44:42;20.98;;;7.68;;
74213;SDS011;62576;55.694;37.494;2024-01-15T08:47:12;25.45;;;8.63;;
74213;SDS011;62576;55.694;37.494;2024-01-15T08:49:44;21.83;;;8.18;;
74213;SDS011;62576;55.694;37.494;2024-01-15T08:52:16;18.92;;;7.32;;
74213;SDS011;62576;55.694;37.494;2024-01-15T08:54:46;26.65;;;9.05;;
74213;SDS011;62576;55.694;37.494;2024-01-15T08:57:15;21.45;;;8.02;;
74213;SDS011;62576;55.694;37.494;2024-01-15T08:59:45;21.35;;;8.13;;
74213;SDS011;62576;55.694;37.494;2024-01-15T09:02:16;23.73;;;9.48;;
74213;SDS011;62576;55.694;37.494;2024-01-15T09:04:47;27.23;;;8.93;;
74213;SDS011;62576;55.694;37.494;2024-01-15T09:07:18;23.30;;;7.95;;
74213;SDS011;62576;55.694;37.494;2024-01-15T09:09:48;25.10;;;8.93;;
74213;SDS011;62576;55.694;37.494;2024-01-15T09:12:18;21.88;;;7.78;;
74213;SDS011;62576;55.694;37.494;2024-01-15T09:14:49;24.60;;;8.70;;
74213;SDS011;62576;55.694;37.494;2024-01-15T09:17:18;25.45;;;8.68;;
74213;SDS011;62576;55.694;37.494;2024-01-15T09:19:48;20.60;;;8.05;;
74213;SDS011;62576;55.694;37.494;2024-01-15T09:22:19;20.95;;;7.88;;
74213;SDS011;62576;55.694;37.494;2024-01-15T09:24:46;25.10;;;9.10;;
74213;SDS011;62576;55.694;37.494;2024-01-15T09:27:16;23.67;;;8.60;;
74213;SDS011;62576;55.694;37.494;2024-01-15T09:29:46;22.90;;;9.00;;
74213;SDS011;62576;55.694;37.494;2024-01-15T09:32:16;16.73;;;6.32;;
74213;SDS011;62576;55.694;37.494;2024-01-15T09:34:46;22.85;;;8.50;;
74213;SDS011;62576;55.694;37.494;2024-01-15T09:37:16;23.35;;;8.63;;
74213;SDS011;62576;55.694;37.494;2024-01-15T09:39:47;26.33;;;9.23;;
74213;SDS011;62576;55.694;37.494;2024-01-15T09:42:18;21.92;;;8.25;;
74213;SDS011;62576;55.694;37.494;2024-01-15T09:44:48;19.80;;;7.93;;
74213;SDS011;62576;55.694;37.494;2024-01-15T09:47:18;23.55;;;7.63;;
74213;SDS011;62576;55.694;37.494;2024-01-15T09:49:49;20.63;;;7.80;;
74213;SDS011;62576;55.694;37.494;2024-01-15T09:52:19;20.90;;;7.80;;
74213;SDS011;62576;55.694;37.494;2024-01-15T09:54:51;18.17;;;6.70;;
74213;SDS011;62576;55.694;37.494;2024-01-15T09:57:21;19.67;;;8.07;;
74213;SDS011;62576;55.694;37.494;2024-01-15T09:59:51;20.38;;;8.18;;
74213;SDS011;62576;55.694;37.494;2024-01-15T10:02:22;21.42;;;7.95;;
74213;SDS011;62576;55.694;37.494;2024-01-15T10:04:52;20.88;;;8.65;;
74213;SDS011;62576;55.694;37.494;2024-01-15T10:07:22;17.02;;;7.50;;
74213;SDS011;62576;55.694;37.494;2024-01-15T10:09:54;19.77;;;7.32;;
74213;SDS011;62576;55.694;37.494;2024-01-15T10:12:24;20.95;;;8.45;;
74213;SDS011;62576;55.694;37.494;2024-01-15T10:14:55;22.13;;;8.02;;
74213;SDS011;62576;55.694;37.494;2024-01-15T10:17:25;17.40;;;7.25;;
74213;SDS011;62576;55.694;37.494;2024-01-15T10:19:55;18.30;;;7.35;;
74213;SDS011;62576;55.694;37.494;2024-01-15T10:22:25;22.83;;;7.97;;
74213;SDS011;62576;55.694;37.494;2024-01-15T10:24:54;19.58;;;7.28;;
74213;SDS011;62576;55.694;37.494;2024-01-15T10:27:23;22.17;;;8.48;;
74213;SDS011;62576;55.694;37.494;2024-01-15T10:29:53;23.92;;;9.18;;
74213;SDS011;62576;55.694;37.494;2024-01-15T10:32:23;22.00;;;7.82;;
74213;SDS011;62576;55.694;37.494;2024-01-15T10:34:54;24.67;;;8.70;;
74213;SDS011;62576;55.694;37.494;2024-01-15T10:37:24;21.83;;;8.52;;
74213;SDS011;62576;55.694;37.494;2024-01-15T10:39:55;23.42;;;8.98;;
74213;SDS011;62576;55.694;37.494;2024-01-15T10:42:25;23.05;;;8.60;;
74213;SDS011;62576;55.694;37.494;2024-01-15T10:44:55;23.42;;;9.07;;
74213;SDS011;62576;55.694;37.494;2024-01-15T10:47:25;24.52;;;8.60;;
74213;SDS011;62576;55.694;37.494;2024-01-15T10:49:55;24.70;;;8.63;;
74213;SDS011;62576;55.694;37.494;2024-01-15T10:52:22;25.27;;;9.10;;
74213;SDS011;62576;55.694;37.494;2024-01-15T10:54:52;23.20;;;8.13;;
74213;SDS011;62576;55.694;37.494;2024-01-15T10:57:24;25.52;;;9.55;;
74213;SDS011;62576;55.694;37.494;2024-01-15T10:59:58;23.77;;;9.18;;
74213;SDS011;62576;55.694;37.494;2024-01-15T11:02:32;24.90;;;9.30;;
74213;SDS011;62576;55.694;37.494;2024-01-15T11:05:02;20.52;;;8.40;;
74213;SDS011;62576;55.694;37.494;2024-01-15T11:07:32;22.35;;;8.48;;
74213;SDS011;62576;55.694;37.494;2024-01-15T11:10:03;21.42;;;8.05;;
74213;SDS011;62576;55.694;37.494;2024-01-15T11:12:34;25.55;;;9.07;;
74213;SDS011;62576;55.694;37.494;2024-01-15T11:15:04;24.27;;;9.35;;
74213;SDS011;62576;55.694;37.494;2024-01-15T11:20:21;18.85;;;7.40;;
74213;SDS011;62576;55.694;37.494;2024-01-15T11:22:51;24.55;;;9.32;;
74213;SDS011;62576;55.694;37.494;2024-01-15T11:25:18;20.48;;;8.30;;
74213;SDS011;62576;55.694;37.494;2024-01-15T11:27:50;19.50;;;7.65;;
74213;SDS011;62576;55.694;37.494;2024-01-15T11:30:21;23.02;;;8.32;;
74213;SDS011;62576;55.694;37.494;2024-01-15T11:32:54;22.35;;;8.77;;
74213;SDS011;62576;55.694;37.494;2024-01-15T11:35:24;22.48;;;8.73;;
74213;SDS011;62576;55.694;37.494;2024-01-15T11:38:20;24.73;;;8.73;;
74213;SDS011;62576;55.694;37.494;2024-01-15T11:40:52;21.98;;;8.20;;
74213;SDS011;62576;55.694;37.494;2024-01-15T11:43:24;22.27;;;8.98;;
74213;SDS011;62576;55.694;37.494;2024-01-15T11:45:54;22.77;;;8.25;;
74213;SDS011;62576;55.694;37.494;2024-01-15T11:48:23;22.15;;;8.30;;
74213;SDS011;62576;55.694;37.494;2024-01-15T11:51:03;23.35;;;8.57;;
74213;SDS011;62576;55.694;37.494;2024-01-15T11:53:34;24.13;;;8.70;;
74213;SDS011;62576;55.694;37.494;2024-01-15T11:56:06;25.92;;;9.15;;
74213;SDS011;62576;55.694;37.494;2024-01-15T11:58:41;27.75;;;8.38;;
74213;SDS011;62576;55.694;37.494;2024-01-15T12:01:11;23.73;;;8.65;;
74213;SDS011;62576;55.694;37.494;2024-01-15T12:03:41;21.63;;;8.15;;
74213;SDS011;62576;55.694;37.494;2024-01-15T12:06:11;15.48;;;5.90;;
74213;SDS011;62576;55.694;37.494;2024-01-15T12:08:41;20.60;;;7.97;;
74213;SDS011;62576;55.694;37.494;2024-01-15T12:11:11;23.65;;;9.00;;
74213;SDS011;62576;55.694;37.494;2024-01-15T12:13:44;21.42;;;8.20;;
74213;SDS011;62576;55.694;37.494;2024-01-15T12:16:14;21.02;;;8.30;;
74213;SDS011;62576;55.694;37.494;2024-01-15T12:18:44;27.00;;;9.27;;
74213;SDS011;62576;55.694;37.494;2024-01-15T12:21:14;19.88;;;7.75;;
74213;SDS011;62576;55.694;37.494;2024-01-15T12:23:46;23.48;;;8.43;;
74213;SDS011;62576;55.694;37.494;2024-01-15T12:26:16;23.02;;;8.90;;
74213;SDS011;62576;55.694;37.494;2024-01-15T12:28:48;19.88;;;7.90;;
74213;SDS011;62576;55.694;37.494;2024-01-15T12:31:19;22.20;;;7.88;;
74213;SDS011;62576;55.694;37.494;2024-01-15T12:33:49;21.50;;;7.90;;
74213;SDS011;62576;55.694;37.494;2024-01-15T12:36:20;21.25;;;7.55;;
74213;SDS011;62576;55.694;37.494;2024-01-15T12:38:50;20.15;;;7.22;;
74213;SDS011;62576;55.694;37.494;2024-01-15T12:41:20;22.00;;;8.48;;
74213;SDS011;62576;55.694;37.494;2024-01-15T12:43:52;20.75;;;7.72;;
74213;SDS011;62576;55.694;37.494;2024-01-15T12:46:23;23.98;;;7.82;;
74213;SDS011;62576;55.694;37.494;2024-01-15T12:48:53;21.63;;;8.00;;
74213;SDS011;62576;55.694;37.494;2024-01-15T12:51:24;23.45;;;8.52;;
74213;SDS011;62576;55.694;37.494;2024-01-15T12:53:54;24.30;;;9.05;;
74213;SDS011;62576;55.694;37.494;2024-01-15T12:56:24;23.33;;;8.25;;
74213;SDS011;62576;55.694;37.494;2024-01-15T12:58:55;22.20;;;8.80;;
74213;SDS011;62576;55.694;37.494;2024-01-15T13:01:25;25.48;;;9.02;;
74213;SDS011;62576;55.694;37.494;2024-01-15T13:03:55;21.60;;;8.52;;
74213;SDS011;62576;55.694;37.494;2024-01-15T13:06:25;24.48;;;8.65;;
74213;SDS011;62576;55.694;37.494;2024-01-15T13:08:55;23.27;;;9.18;;
74213;SDS011;62576;55.694;37.494;2024-01-15T13:11:26;20.83;;;8.85;;
74213;SDS011;62576;55.694;37.494;2024-01-15T13:13:57;23.77;;;9.18;;
74213;SDS011;62576;55.694;37.494;2024-01-15T13:16:27;22.20;;;8.48;;
74213;SDS011;62576;55.694;37.494;2024-01-15T13:18:57;22.75;;;7.43;;
74213;SDS011;62576;55.694;37.494;2024-01-15T13:21:27;20.42;;;7.88;;
74213;SDS011;62576;55.694;37.494;2024-01-15T13:23:59;23.30;;;8.98;;
74213;SDS011;62576;55.694;37.494;2024-01-15T13:26:30;26.23;;;9.18;;
74213;SDS011;62576;55.694;37.494;2024-01-15T13:29:01;24.83;;;8.80;;
74213;SDS011;62576;55.694;37.494;2024-01-15T13:31:31;24.02;;;9.20;;
74213;SDS011;62576;55.694;37.494;2024-01-15T13:34:02;23.10;;;8.40;;
74213;SDS011;62576;55.694;37.494;2024-01-15T13:36:31;24.92;;;9.10;;
74213;SDS011;62576;55.694;37.494;2024-01-15T13:39:01;22.25;;;8.45;;
74213;SDS011;62576;55.694;37.494;2024-01-15T13:41:31;22.20;;;8.40;;
74213;SDS011;62576;55.694;37.494;2024-01-15T13:44:02;19.30;;;7.90;;
74213;SDS011;62576;55.694;37.494;2024-01-15T13:46:32;24.98;;;8.88;;
74213;SDS011;62576;55.694;37.494;2024-01-15T13:49:04;25.20;;;9.43;;
74213;SDS011;62576;55.694;37.494;2024-01-15T13:51:34;23.80;;;9.20;;
74213;SDS011;62576;55.694;37.494;2024-01-15T13:54:04;25.77;;;9.10;;
74213;SDS011;62576;55.694;37.494;2024-01-15T13:56:33;21.83;;;8.13;;
74213;SDS011;62576;55.694;37.494;2024-01-15T13:59:05;23.98;;;8.10;;
74213;SDS011;62576;55.694;37.494;2024-01-15T14:01:35;24.90;;;8.52;;
74213;SDS011;62576;55.694;37.494;2024-01-15T14:04:05;26.10;;;8.82;;
74213;SDS011;62576;55.694;37.494;2024-01-15T14:06:34;24.15;;;8.77;;
74213;SDS011;62576;55.694;37.494;2024-01-15T14:09:04;27.20;;;9.85;;
74213;SDS011;62576;55.694;37.494;2024-01-15T14:11:37;25.98;;;8.95;;
74213;SDS011;62576;55.694;37.494;2024-01-15T14:14:09;23.27;;;8.88;;
74213;SDS011;62576;55.694;37.494;2024-01-15T14:16:39;26.13;;;9.48;;
74213;SDS011;62576;55.694;37.494;2024-01-15T14:19:08;26.55;;;9.02;;
74213;SDS011;62576;55.694;37.494;2024-01-15T14:21:40;26.48;;;9.10;;
74213;SDS011;62576;55.694;37.494;2024-01-15T14:24:10;23.00;;;9.23;;
74213;SDS011;62576;55.694;37.494;2024-01-15T14:26:40;22.60;;;9.15;;
74213;SDS011;62576;55.694;37.494;2024-01-15T14:29:12;23.70;;;9.20;;
74213;SDS011;62576;55.694;37.494;2024-01-15T14:31:39;23.40;;;8.70;;
74213;SDS011;62576;55.694;37.494;2024-01-15T14:34:08;24.23;;;8.73;;
74213;SDS011;62576;55.694;37.494;2024-01-15T14:36:39;26.40;;;8.88;;
74213;SDS011;62576;55.694;37.494;2024-01-15T14:39:12;26.17;;;9.05;;
74213;SDS011;62576;55.694;37.494;2024-01-15T14:41:42;23.57;;;7.63;;
74213;SDS011;62576;55.694;37.494;2024-01-15T14:44:14;22.58;;;7.97;;